Terminal Aerodrome Forecast
Issued by NWS

Current Version | Previous Version | Text Only | Print | Product List | Glossary On
Versions: 1 2 3 4 5 6 7 8 9 10 11 12 13 14
000
FTUS43 KBIS 232000 AAB
TAFDIK
TAF AMD
KDIK 232040Z 2321/2418 30031G37KT P6SM VCSH BKN023 OVC030
     FM232200 30022G33KT P6SM SCT020 BKN040
     FM240100 31017KT P6SM BKN040
     FM240600 31015KT P6SM SCT090=

USA.gov is the U.S. government's official web portal to all federal, state and local government web resources and services.